Time;durP1;ratioP1;P1;durP2;ratioP2;P2;SDS_P1;SDS_P2;PMS_P1;PMS_P2;Temp;Humidity;BMP_temperature;BMP_pressure;BME280_temperature;BME280_humidity;BME280_pressure;Samples;Min_cycle;Max_cycle;Signal;HPM_P1;HPM_P2
2021/08/15 00:01:26;;;;;;;42.13;24.13;;;;;;;;;;2629370;38;20380;-74
2021/08/15 00:03:52;;;;;;;34.57;24.87;;;;;;;;;;2628703;38;20410;-74
2021/08/15 00:06:18;;;;;;;34.93;25.43;;;;;;;;;;2629223;30;20395;-74
2021/08/15 00:08:48;;;;;;;32.13;24.60;;;;;;;;;;2630170;38;20366;-74
2021/08/15 00:11:14;;;;;;;40.80;23.57;;;;;;;;;;2629467;30;20394;-74
2021/08/15 00:13:41;;;;;;;32.50;23.90;;;;;;;;;;2629426;30;20369;-74
2021/08/15 00:16:08;;;;;;;33.93;24.33;;;;;;;;;;2630148;30;20370;-74
2021/08/15 00:18:36;;;;;;;37.33;23.40;;;;;;;;;;2628419;38;20378;-74
2021/08/15 00:21:04;;;;;;;33.53;24.00;;;;;;;;;;2629382;30;20350;-74
2021/08/15 00:23:30;;;;;;;40.20;25.87;;;;;;;;;;2629668;30;20352;-74
2021/08/15 00:25:56;;;;;;;34.03;23.33;;;;;;;;;;2628235;30;20375;-74
2021/08/15 00:28:22;;;;;;;33.23;23.20;;;;;;;;;;2629692;38;20967;-75
2021/08/15 00:30:48;;;;;;;33.00;23.80;;;;;;;;;;2628132;38;20444;-74
2021/08/15 00:33:14;;;;;;;34.80;23.67;;;;;;;;;;2628412;38;20370;-74
2021/08/15 00:35:43;;;;;;;31.03;24.57;;;;;;;;;;2627469;38;20388;-74
2021/08/15 00:38:09;;;;;;;30.77;22.57;;;;;;;;;;2628425;38;20381;-74
2021/08/15 00:40:35;;;;;;;36.07;24.67;;;;;;;;;;2629621;30;20335;-74
2021/08/15 00:43:01;;;;;;;41.73;24.63;;;;;;;;;;2630109;30;20957;-74
2021/08/15 00:45:27;;;;;;;40.47;23.43;;;;;;;;;;2628946;30;20423;-75
2021/08/15 00:47:53;;;;;;;32.60;25.00;;;;;;;;;;2629501;38;20382;-75
2021/08/15 00:50:20;;;;;;;32.40;20.57;;;;;;;;;;2631008;30;20529;-74
2021/08/15 00:52:47;;;;;;;37.27;23.80;;;;;;;;;;2629509;30;20373;-74
2021/08/15 00:55:13;;;;;;;35.70;23.23;;;;;;;;;;2630161;38;20420;-74
2021/08/15 00:57:42;;;;;;;26.67;20.90;;;;;;;;;;2630905;38;21576;-74
2021/08/15 01:00:10;;;;;;;29.83;20.90;;;;;;;;;;2629279;38;20967;-75
2021/08/15 01:02:36;;;;;;;32.30;22.50;;;;;;;;;;2631398;30;20986;-79
2021/08/15 01:05:03;;;;;;;36.57;22.27;;;;;;;;;;2633035;30;20381;-79
2021/08/15 01:07:29;;;;;;;31.90;21.80;;;;;;;;;;2632987;38;20385;-79
2021/08/15 01:09:55;;;;;;;36.17;23.17;;;;;;;;;;2635879;30;20931;-79
2021/08/15 01:12:22;;;;;;;33.10;24.97;;;;;;;;;;2633510;38;20394;-79
2021/08/15 01:14:49;;;;;;;28.53;22.27;;;;;;;;;;2631109;38;20366;-79
2021/08/15 01:17:15;;;;;;;33.17;22.50;;;;;;;;;;2633878;30;20415;-79
2021/08/15 01:19:42;;;;;;;31.30;22.23;;;;;;;;;;2633944;38;20385;-79
2021/08/15 01:22:08;;;;;;;32.00;21.53;;;;;;;;;;2632069;38;20385;-79
2021/08/15 01:24:34;;;;;;;30.70;22.37;;;;;;;;;;2633857;38;20427;-79
2021/08/15 01:27:00;;;;;;;25.20;21.33;;;;;;;;;;2633298;30;20905;-79
2021/08/15 01:29:27;;;;;;;31.40;20.70;;;;;;;;;;2635141;30;20377;-79
2021/08/15 01:31:54;;;;;;;31.57;22.53;;;;;;;;;;2633248;38;20357;-79
2021/08/15 01:34:20;;;;;;;35.10;24.10;;;;;;;;;;2633256;38;20526;-79
2021/08/15 01:36:46;;;;;;;34.83;22.50;;;;;;;;;;2633827;30;20407;-79
2021/08/15 01:39:13;;;;;;;24.83;20.00;;;;;;;;;;2635620;30;20361;-79
2021/08/15 01:41:39;;;;;;;41.77;25.03;;;;;;;;;;2632230;38;20386;-79
2021/08/15 01:44:05;;;;;;;35.73;22.90;;;;;;;;;;2632438;38;20374;-79
2021/08/15 01:46:32;;;;;;;28.77;23.07;;;;;;;;;;2633610;38;20401;-79
2021/08/15 01:48:59;;;;;;;29.67;21.53;;;;;;;;;;2634115;38;20398;-79
2021/08/15 01:51:26;;;;;;;34.07;22.77;;;;;;;;;;2632599;38;20405;-79
2021/08/15 01:53:53;;;;;;;28.90;20.90;;;;;;;;;;2633714;38;21092;-78
2021/08/15 01:56:20;;;;;;;31.47;22.30;;;;;;;;;;2632793;30;20403;-79
2021/08/15 01:58:46;;;;;;;34.13;24.40;;;;;;;;;;2630816;38;20407;-79
2021/08/15 02:01:19;;;;;;;39.60;24.60;;;;;;;;;;2630732;38;20417;-78
2021/08/15 02:03:45;;;;;;;31.87;24.60;;;;;;;;;;2631850;38;20428;-79
2021/08/15 02:06:11;;;;;;;30.13;23.50;;;;;;;;;;2633869;30;20516;-79
2021/08/15 02:08:38;;;;;;;52.13;27.63;;;;;;;;;;2631318;38;20419;-79
2021/08/15 02:11:04;;;;;;;32.20;24.70;;;;;;;;;;2635127;30;20362;-79
2021/08/15 02:13:30;;;;;;;29.60;21.53;;;;;;;;;;2635298;30;20384;-79
2021/08/15 02:15:56;;;;;;;36.27;23.30;;;;;;;;;;2632677;30;20395;-78
2021/08/15 02:18:22;;;;;;;49.73;24.87;;;;;;;;;;2632537;30;21322;-79
2021/08/15 02:20:48;;;;;;;31.10;24.00;;;;;;;;;;2631748;30;20429;-78
2021/08/15 02:23:15;;;;;;;31.57;23.07;;;;;;;;;;2634429;30;20364;-79
2021/08/15 02:25:42;;;;;;;39.37;23.23;;;;;;;;;;2633411;38;20382;-79
2021/08/15 02:28:08;;;;;;;33.37;24.13;;;;;;;;;;2634273;30;20443;-79
2021/08/15 02:30:34;;;;;;;38.43;25.00;;;;;;;;;;2633412;38;20380;-79
2021/08/15 02:33:01;;;;;;;30.37;22.70;;;;;;;;;;2632486;30;20376;-79
2021/08/15 02:35:31;;;;;;;26.57;21.50;;;;;;;;;;2633579;30;21233;-79
2021/08/15 02:37:57;;;;;;;31.60;22.47;;;;;;;;;;2632464;30;20409;-79
2021/08/15 02:40:23;;;;;;;29.30;21.93;;;;;;;;;;2632027;30;20485;-78
2021/08/15 02:42:51;;;;;;;29.53;22.50;;;;;;;;;;2630212;30;20370;-79
2021/08/15 02:45:19;;;;;;;38.50;23.07;;;;;;;;;;2631766;30;20398;-79
2021/08/15 02:47:46;;;;;;;27.57;21.50;;;;;;;;;;2632105;38;21290;-78
2021/08/15 02:50:13;;;;;;;32.30;22.70;;;;;;;;;;2637470;30;20890;-78
2021/08/15 02:52:39;;;;;;;31.40;22.67;;;;;;;;;;2631444;38;20410;-78
2021/08/15 02:55:06;;;;;;;32.07;22.33;;;;;;;;;;2632890;30;20472;-78
2021/08/15 02:57:32;;;;;;;34.37;24.37;;;;;;;;;;2633055;38;20792;-78
2021/08/15 02:59:58;;;;;;;31.67;23.93;;;;;;;;;;2633171;30;20412;-79
2021/08/15 03:02:24;;;;;;;32.13;24.07;;;;;;;;;;2630498;38;20397;-79
2021/08/15 03:04:51;;;;;;;34.97;22.70;;;;;;;;;;2634120;30;21305;-79
2021/08/15 03:07:18;;;;;;;34.73;24.50;;;;;;;;;;2630117;38;20377;-78
2021/08/15 03:09:45;;;;;;;37.53;23.67;;;;;;;;;;2632669;38;20368;-78
2021/08/15 03:12:12;;;;;;;41.40;26.37;;;;;;;;;;2631881;38;20419;-78
2021/08/15 03:14:38;;;;;;;31.60;22.70;;;;;;;;;;2632316;38;20392;-79
2021/08/15 03:17:07;;;;;;;32.23;21.27;;;;;;;;;;2633932;30;20379;-78
2021/08/15 03:19:33;;;;;;;40.73;27.20;;;;;;;;;;2631040;38;20408;-78
2021/08/15 03:22:00;;;;;;;35.93;24.30;;;;;;;;;;2631146;30;20409;-79
2021/08/15 03:24:26;;;;;;;37.10;24.43;;;;;;;;;;2630918;38;20388;-78
2021/08/15 03:26:52;;;;;;;35.40;25.20;;;;;;;;;;2630814;30;20498;-77
2021/08/15 03:29:18;;;;;;;39.43;25.57;;;;;;;;;;2631329;30;20492;-77
2021/08/15 03:31:46;;;;;;;34.13;24.70;;;;;;;;;;2632392;38;21412;-79
2021/08/15 03:34:13;;;;;;;39.37;25.83;;;;;;;;;;2632668;30;20401;-77
2021/08/15 03:36:39;;;;;;;36.47;25.87;;;;;;;;;;2630331;30;20932;-77
2021/08/15 03:39:06;;;;;;;41.37;23.83;;;;;;;;;;2634341;30;20788;-77
2021/08/15 03:41:32;;;;;;;34.03;24.47;;;;;;;;;;2631915;38;21293;-77
2021/08/15 03:43:58;;;;;;;40.57;24.10;;;;;;;;;;2632714;30;20880;-77
2021/08/15 03:46:24;;;;;;;34.07;24.40;;;;;;;;;;2630991;30;20475;-78
2021/08/15 03:48:50;;;;;;;37.27;27.77;;;;;;;;;;2632249;38;20393;-77
2021/08/15 03:51:16;;;;;;;40.97;26.50;;;;;;;;;;2630777;30;20420;-77
2021/08/15 03:53:43;;;;;;;35.03;27.17;;;;;;;;;;2630965;38;20378;-77
2021/08/15 03:56:09;;;;;;;44.13;28.60;;;;;;;;;;2631049;30;20369;-77
2021/08/15 03:58:36;;;;;;;40.30;28.20;;;;;;;;;;2631200;38;20402;-77
2021/08/15 04:01:03;;;;;;;44.50;29.47;;;;;;;;;;2631881;30;21110;-77
2021/08/15 04:03:29;;;;;;;42.30;28.90;;;;;;;;;;2633337;30;20370;-77
2021/08/15 04:05:56;;;;;;;46.33;32.10;;;;;;;;;;2630383;30;20448;-78
2021/08/15 04:08:23;;;;;;;46.37;28.30;;;;;;;;;;2630130;38;20371;-77
2021/08/15 04:10:49;;;;;;;39.00;29.40;;;;;;;;;;2631047;38;20359;-77
2021/08/15 04:13:16;;;;;;;48.50;29.90;;;;;;;;;;2631540;30;20377;-78
2021/08/15 04:15:42;;;;;;;44.17;29.23;;;;;;;;;;2630882;30;20379;-77
2021/08/15 04:18:08;;;;;;;37.37;28.00;;;;;;;;;;2631097;38;20376;-78
2021/08/15 04:20:34;;;;;;;37.63;27.40;;;;;;;;;;2631959;30;20369;-78
2021/08/15 04:23:00;;;;;;;40.13;27.67;;;;;;;;;;2630335;38;20439;-77
2021/08/15 04:25:26;;;;;;;36.90;27.27;;;;;;;;;;2630020;38;20410;-79
2021/08/15 04:27:53;;;;;;;41.50;29.50;;;;;;;;;;2630984;30;20386;-78
2021/08/15 04:30:19;;;;;;;41.27;27.23;;;;;;;;;;2631151;38;21146;-78
2021/08/15 04:32:45;;;;;;;44.67;28.20;;;;;;;;;;2629194;38;20417;-77
2021/08/15 04:35:11;;;;;;;46.57;28.30;;;;;;;;;;2632606;30;21283;-77
2021/08/15 04:37:37;;;;;;;41.63;28.70;;;;;;;;;;2632264;30;20349;-77
2021/08/15 04:40:04;;;;;;;53.50;28.63;;;;;;;;;;2633300;30;20393;-78
2021/08/15 04:42:30;;;;;;;37.70;27.47;;;;;;;;;;2632042;30;20348;-77
2021/08/15 04:44:57;;;;;;;44.30;27.87;;;;;;;;;;2631714;30;20381;-77
2021/08/15 04:47:23;;;;;;;40.00;26.63;;;;;;;;;;2631362;30;20939;-77
2021/08/15 04:49:49;;;;;;;35.97;25.40;;;;;;;;;;2631153;30;20908;-77
2021/08/15 04:52:15;;;;;;;40.03;25.77;;;;;;;;;;2630553;38;20422;-77
2021/08/15 04:54:41;;;;;;;39.03;25.87;;;;;;;;;;2630227;38;21222;-77
2021/08/15 04:57:07;;;;;;;35.10;25.63;;;;;;;;;;2630218;38;20938;-77
2021/08/15 04:59:33;;;;;;;33.20;23.03;;;;;;;;;;2630483;30;20388;-78
2021/08/15 05:02:03;;;;;;;35.27;24.90;;;;;;;;;;2630928;30;20408;-77
2021/08/15 05:04:29;;;;;;;40.57;25.47;;;;;;;;;;2629454;38;20379;-77
2021/08/15 05:06:55;;;;;;;36.87;24.57;;;;;;;;;;2631539;30;20376;-77
2021/08/15 05:09:21;;;;;;;37.50;23.13;;;;;;;;;;2631317;38;21239;-78
2021/08/15 05:11:48;;;;;;;34.13;23.30;;;;;;;;;;2631074;38;20424;-77
2021/08/15 05:14:14;;;;;;;36.53;22.80;;;;;;;;;;2631057;30;20520;-77
2021/08/15 05:16:40;;;;;;;28.17;21.30;;;;;;;;;;2631006;38;20385;-77
2021/08/15 05:19:06;;;;;;;34.43;23.27;;;;;;;;;;2630870;30;20382;-77
2021/08/15 05:21:33;;;;;;;36.90;22.20;;;;;;;;;;2629481;38;20393;-76
2021/08/15 05:23:59;;;;;;;32.67;22.00;;;;;;;;;;2630290;38;20393;-77
2021/08/15 05:26:25;;;;;;;30.23;22.83;;;;;;;;;;2629481;38;20417;-77
2021/08/15 05:28:52;;;;;;;26.07;20.70;;;;;;;;;;2631559;30;20782;-77
2021/08/15 05:31:19;;;;;;;32.40;21.40;;;;;;;;;;2630136;38;20403;-77
2021/08/15 05:33:45;;;;;;;29.90;21.50;;;;;;;;;;2630043;38;20378;-76
2021/08/15 05:36:11;;;;;;;27.53;22.33;;;;;;;;;;2630536;30;20370;-77
2021/08/15 05:38:37;;;;;;;26.30;20.13;;;;;;;;;;2631475;30;20835;-77
2021/08/15 05:41:04;;;;;;;33.20;19.73;;;;;;;;;;2630047;38;20363;-77
2021/08/15 05:43:30;;;;;;;28.10;19.50;;;;;;;;;;2632484;30;20401;-77
2021/08/15 05:45:56;;;;;;;26.67;19.20;;;;;;;;;;2630464;30;20388;-77
2021/08/15 05:48:23;;;;;;;29.17;19.70;;;;;;;;;;2630022;30;20381;-77
2021/08/15 05:50:49;;;;;;;24.07;18.70;;;;;;;;;;2630220;30;20384;-77
2021/08/15 05:53:15;;;;;;;22.13;19.00;;;;;;;;;;2632078;30;20361;-77
2021/08/15 05:55:41;;;;;;;22.20;18.10;;;;;;;;;;2630427;30;20523;-77
2021/08/15 05:58:08;;;;;;;23.40;17.60;;;;;;;;;;2629254;38;20945;-76
2021/08/15 06:00:34;;;;;;;22.70;17.53;;;;;;;;;;2629800;30;20517;-77
2021/08/15 06:03:00;;;;;;;25.43;17.33;;;;;;;;;;2630964;30;20439;-77
2021/08/15 06:05:26;;;;;;;22.57;16.17;;;;;;;;;;2630138;30;20421;-77
2021/08/15 06:07:52;;;;;;;27.43;18.50;;;;;;;;;;2632644;30;20371;-77
2021/08/15 06:10:19;;;;;;;18.97;15.70;;;;;;;;;;2630500;38;20377;-77
2021/08/15 06:12:45;;;;;;;23.20;16.77;;;;;;;;;;2631282;30;20995;-77
2021/08/15 06:15:14;;;;;;;25.87;16.67;;;;;;;;;;2631396;38;20374;-77
2021/08/15 06:17:41;;;;;;;26.83;16.93;;;;;;;;;;2629883;38;20386;-77
2021/08/15 06:20:08;;;;;;;17.07;14.47;;;;;;;;;;2628974;30;20393;-77
2021/08/15 06:22:46;;;;;;;25.70;15.90;;;;;;;;;;2630681;30;20361;-76
2021/08/15 06:25:13;;;;;;;23.30;15.03;;;;;;;;;;2628282;30;21072;-77
2021/08/15 06:27:44;;;;;;;19.80;14.40;;;;;;;;;;2629178;38;20380;-77
2021/08/15 06:30:13;;;;;;;19.90;14.47;;;;;;;;;;2628832;38;20386;-77
2021/08/15 06:32:49;;;;;;;18.30;13.73;;;;;;;;;;2627972;38;20862;-77
2021/08/15 06:35:16;;;;;;;20.97;13.77;;;;;;;;;;2629701;38;20426;-78
2021/08/15 06:37:43;;;;;;;19.13;14.70;;;;;;;;;;2628510;30;20420;-77
2021/08/15 06:40:22;;;;;;;17.90;13.60;;;;;;;;;;2630956;30;20959;-78
2021/08/15 06:42:48;;;;;;;19.00;13.30;;;;;;;;;;2628419;38;20420;-77
2021/08/15 06:45:15;;;;;;;26.47;11.87;;;;;;;;;;2629308;38;20968;-77
2021/08/15 06:47:41;;;;;;;16.23;10.90;;;;;;;;;;2628700;38;20383;-77
2021/08/15 06:50:07;;;;;;;15.47;11.67;;;;;;;;;;2628493;30;20422;-77
2021/08/15 06:52:36;;;;;;;15.87;12.17;;;;;;;;;;2629324;30;20366;-77
2021/08/15 06:55:03;;;;;;;19.20;10.40;;;;;;;;;;2629891;30;20408;-77
2021/08/15 06:57:29;;;;;;;13.53;10.33;;;;;;;;;;2628786;38;20898;-78
2021/08/15 06:59:55;;;;;;;15.20;9.70;;;;;;;;;;2628603;30;20375;-77
2021/08/15 07:02:21;;;;;;;16.70;11.17;;;;;;;;;;2628179;30;20414;-77
2021/08/15 07:04:48;;;;;;;18.20;10.10;;;;;;;;;;2628247;38;20429;-77
2021/08/15 07:07:14;;;;;;;13.40;9.77;;;;;;;;;;2629916;30;20390;-77
2021/08/15 07:09:40;;;;;;;18.97;10.83;;;;;;;;;;2629999;38;20529;-77
2021/08/15 07:12:06;;;;;;;13.07;8.73;;;;;;;;;;2630307;38;20424;-78
2021/08/15 07:14:32;;;;;;;9.97;8.40;;;;;;;;;;2628850;30;20382;-77
2021/08/15 07:16:58;;;;;;;10.87;8.60;;;;;;;;;;2629886;38;20397;-77
2021/08/15 07:19:25;;;;;;;7.67;6.87;;;;;;;;;;2630118;30;20478;-77
2021/08/15 07:21:52;;;;;;;10.97;7.87;;;;;;;;;;2629531;30;20390;-78
2021/08/15 07:24:18;;;;;;;7.00;6.30;;;;;;;;;;2629617;30;20400;-77
2021/08/15 07:26:44;;;;;;;12.83;8.27;;;;;;;;;;2630271;30;20390;-78
2021/08/15 07:29:10;;;;;;;11.83;6.80;;;;;;;;;;2629551;30;20399;-78
2021/08/15 07:31:36;;;;;;;9.40;6.80;;;;;;;;;;2629496;38;20391;-77
2021/08/15 07:34:02;;;;;;;13.20;6.50;;;;;;;;;;2630132;38;20498;-78
2021/08/15 07:36:29;;;;;;;11.00;7.23;;;;;;;;;;2629651;30;20379;-78
2021/08/15 07:38:55;;;;;;;11.20;6.90;;;;;;;;;;2628474;38;20397;-78
2021/08/15 07:41:21;;;;;;;10.30;6.13;;;;;;;;;;2628408;38;20409;-78
2021/08/15 07:43:48;;;;;;;8.27;6.30;;;;;;;;;;2629185;38;20870;-78
2021/08/15 07:46:14;;;;;;;9.00;6.60;;;;;;;;;;2631245;30;20378;-78
2021/08/15 07:48:40;;;;;;;6.50;5.87;;;;;;;;;;2631345;30;20359;-78
2021/08/15 07:51:07;;;;;;;7.43;6.17;;;;;;;;;;2630515;30;20395;-78
2021/08/15 07:53:33;;;;;;;6.60;5.30;;;;;;;;;;2630464;30;20362;-79
2021/08/15 07:56:00;;;;;;;6.53;5.73;;;;;;;;;;2630373;30;20474;-77
2021/08/15 07:58:26;;;;;;;9.07;6.23;;;;;;;;;;2630432;30;20390;-77
2021/08/15 08:00:53;;;;;;;6.40;5.67;;;;;;;;;;2629603;30;20387;-78
2021/08/15 08:03:19;;;;;;;9.20;6.00;;;;;;;;;;2627775;38;20375;-77
2021/08/15 08:05:45;;;;;;;6.77;5.70;;;;;;;;;;2629733;38;20472;-77
2021/08/15 08:08:12;;;;;;;10.27;6.30;;;;;;;;;;2628080;38;21109;-78
2021/08/15 08:10:40;;;;;;;8.10;6.30;;;;;;;;;;2628711;30;20379;-78
2021/08/15 08:13:06;;;;;;;7.63;6.80;;;;;;;;;;2629407;38;20895;-78
2021/08/15 08:15:32;;;;;;;8.47;7.60;;;;;;;;;;2628930;30;20389;-78
2021/08/15 08:17:58;;;;;;;7.00;6.40;;;;;;;;;;2630620;38;20386;-78
2021/08/15 08:20:26;;;;;;;8.67;7.80;;;;;;;;;;2631971;30;20422;-78
2021/08/15 08:22:52;;;;;;;7.23;6.63;;;;;;;;;;2630194;38;20426;-79
2021/08/15 08:25:18;;;;;;;5.27;4.77;;;;;;;;;;2630001;30;20856;-78
2021/08/15 08:27:45;;;;;;;7.80;5.23;;;;;;;;;;2629977;30;21246;-78
2021/08/15 08:30:11;;;;;;;5.90;5.37;;;;;;;;;;2631282;30;20417;-79
2021/08/15 08:32:38;;;;;;;7.90;5.53;;;;;;;;;;2629298;30;20378;-78
2021/08/15 08:35:04;;;;;;;10.03;6.43;;;;;;;;;;2629939;38;20520;-77
2021/08/15 08:37:31;;;;;;;8.20;6.50;;;;;;;;;;2630070;30;20373;-78
2021/08/15 08:39:59;;;;;;;7.60;6.90;;;;;;;;;;2628204;38;20463;-77
2021/08/15 08:42:27;;;;;;;6.40;5.90;;;;;;;;;;2629727;30;21313;-79
2021/08/15 08:44:56;;;;;;;6.90;6.20;;;;;;;;;;2631859;38;20387;-79
2021/08/15 08:47:22;;;;;;;8.43;6.77;;;;;;;;;;2631008;30;20395;-78
2021/08/15 08:49:49;;;;;;;6.43;5.27;;;;;;;;;;2631630;30;20379;-78
2021/08/15 08:52:16;;;;;;;6.73;5.10;;;;;;;;;;2629995;38;20381;-78
2021/08/15 08:54:42;;;;;;;6.60;5.93;;;;;;;;;;2630062;38;20963;-79
2021/08/15 08:57:08;;;;;;;7.00;6.00;;;;;;;;;;2630639;30;20386;-78
2021/08/15 08:59:38;;;;;;;9.73;5.10;;;;;;;;;;2629682;38;20378;-78
2021/08/15 09:02:05;;;;;;;6.77;5.60;;;;;;;;;;2629913;30;21259;-79
2021/08/15 09:04:31;;;;;;;6.87;5.80;;;;;;;;;;2631137;38;20417;-78
2021/08/15 09:07:02;;;;;;;8.30;6.57;;;;;;;;;;2631256;30;21159;-78
2021/08/15 09:09:28;;;;;;;6.27;5.70;;;;;;;;;;2629808;30;20422;-78
2021/08/15 09:11:59;;;;;;;8.40;6.43;;;;;;;;;;2631665;30;21336;-79
2021/08/15 09:14:26;;;;;;;5.97;5.40;;;;;;;;;;2629755;38;20409;-78
2021/08/15 09:16:55;;;;;;;7.47;6.30;;;;;;;;;;2631090;38;20400;-78
2021/08/15 09:19:42;;;;;;;6.50;5.87;;;;;;;;;;2631862;30;21331;-78
2021/08/15 09:22:11;;;;;;;7.03;6.43;;;;;;;;;;2629041;38;20382;-79
2021/08/15 09:24:47;;;;;;;6.17;5.60;;;;;;;;;;2630420;30;20375;-78
2021/08/15 09:27:34;;;;;;;5.63;5.00;;;;;;;;;;2630633;30;20378;-78
2021/08/15 09:30:05;;;;;;;6.73;6.07;;;;;;;;;;2632736;30;20383;-78
2021/08/15 09:32:32;;;;;;;6.53;5.93;;;;;;;;;;2631643;30;20839;-78
2021/08/15 09:35:00;;;;;;;6.80;6.20;;;;;;;;;;2631894;30;20386;-80
2021/08/15 09:37:33;;;;;;;9.63;6.13;;;;;;;;;;2632284;30;20913;-79
2021/08/15 09:39:59;;;;;;;6.40;5.83;;;;;;;;;;2631082;38;20374;-79
2021/08/15 09:42:41;;;;;;;7.60;5.70;;;;;;;;;;2631183;30;20377;-78
2021/08/15 09:45:12;;;;;;;8.17;6.73;;;;;;;;;;2629628;38;20382;-78
2021/08/15 09:47:38;;;;;;;7.17;5.80;;;;;;;;;;2632903;30;20775;-78
2021/08/15 09:50:15;;;;;;;6.67;6.03;;;;;;;;;;2629460;30;20486;-78
2021/08/15 09:52:41;;;;;;;6.47;5.80;;;;;;;;;;2629021;38;20403;-78
2021/08/15 09:55:08;;;;;;;7.10;5.50;;;;;;;;;;2629522;30;20366;-78
2021/08/15 09:57:35;;;;;;;7.93;6.47;;;;;;;;;;2633045;30;20434;-78
2021/08/15 10:00:01;;;;;;;7.13;5.57;;;;;;;;;;2628826;38;20367;-78
2021/08/15 10:02:28;;;;;;;7.40;6.90;;;;;;;;;;2629373;38;20398;-78
2021/08/15 10:04:57;;;;;;;7.57;6.80;;;;;;;;;;2631751;30;21000;-79
2021/08/15 10:07:24;;;;;;;7.43;6.73;;;;;;;;;;2630178;30;20354;-78
2021/08/15 10:09:51;;;;;;;8.30;7.10;;;;;;;;;;2630632;30;20409;-78
2021/08/15 10:12:17;;;;;;;10.00;7.77;;;;;;;;;;2631288;30;20385;-78
2021/08/15 10:14:43;;;;;;;6.60;6.20;;;;;;;;;;2631244;30;20381;-78
2021/08/15 10:17:11;;;;;;;6.83;6.13;;;;;;;;;;2629672;30;20379;-78
2021/08/15 10:19:45;;;;;;;7.10;6.60;;;;;;;;;;2631809;38;20402;-79
2021/08/15 10:22:19;;;;;;;7.50;6.73;;;;;;;;;;2629001;38;20466;-78
2021/08/15 10:24:50;;;;;;;6.50;6.00;;;;;;;;;;2630799;30;20454;-79
2021/08/15 10:27:35;;;;;;;8.70;6.70;;;;;;;;;;2629140;38;20482;-78
2021/08/15 10:30:01;;;;;;;6.73;6.23;;;;;;;;;;2630841;30;20469;-78
2021/08/15 10:32:27;;;;;;;12.83;6.43;;;;;;;;;;2629115;38;20375;-79
2021/08/15 10:34:54;;;;;;;8.07;6.07;;;;;;;;;;2629248;30;20470;-79
2021/08/15 10:37:27;;;;;;;9.20;8.30;;;;;;;;;;2632504;30;20405;-80
2021/08/15 10:40:02;;;;;;;9.27;8.20;;;;;;;;;;2628307;30;21213;-78
2021/08/15 10:42:42;;;;;;;8.80;7.80;;;;;;;;;;2629568;38;20405;-79
2021/08/15 10:45:13;;;;;;;8.27;7.57;;;;;;;;;;2631691;30;20366;-79
2021/08/15 10:47:39;;;;;;;9.53;7.40;;;;;;;;;;2630401;38;20394;-78
2021/08/15 10:50:07;;;;;;;7.73;7.17;;;;;;;;;;2632246;38;20360;-77
2021/08/15 10:52:43;;;;;;;10.50;8.63;;;;;;;;;;2630396;38;20370;-80
2021/08/15 10:55:18;;;;;;;9.67;8.87;;;;;;;;;;2631211;38;20351;-80
2021/08/15 10:57:48;;;;;;;13.30;8.60;;;;;;;;;;2635383;30;20343;-79
2021/08/15 11:00:30;;;;;;;9.23;8.23;;;;;;;;;;2633426;30;20423;-80
2021/08/15 11:03:11;;;;;;;9.67;7.90;;;;;;;;;;2630949;38;20478;-79
2021/08/15 11:05:38;;;;;;;12.33;8.33;;;;;;;;;;2631734;38;20911;-80
2021/08/15 11:08:05;;;;;;;8.57;7.80;;;;;;;;;;2633687;30;20374;-77
2021/08/15 11:10:51;;;;;;;10.27;9.47;;;;;;;;;;2630942;30;20359;-80
2021/08/15 11:13:22;;;;;;;9.27;8.47;;;;;;;;;;2631310;38;20366;-78
2021/08/15 11:15:48;;;;;;;8.03;7.43;;;;;;;;;;2633539;30;20375;-79
2021/08/15 11:18:17;;;;;;;7.03;6.30;;;;;;;;;;2633928;30;20409;-79
2021/08/15 11:20:47;;;;;;;7.90;7.30;;;;;;;;;;2632405;38;20379;-80
2021/08/15 11:23:18;;;;;;;8.80;8.10;;;;;;;;;;2634314;30;20367;-81
2021/08/15 11:25:45;;;;;;;8.10;7.33;;;;;;;;;;2630453;38;21008;-80
2021/08/15 11:28:12;;;;;;;11.20;8.07;;;;;;;;;;2636519;30;20501;-79
2021/08/15 11:30:39;;;;;;;9.80;8.80;;;;;;;;;;2634684;38;20381;-79
2021/08/15 11:33:08;;;;;;;11.80;7.47;;;;;;;;;;2632937;30;20343;-79
2021/08/15 11:35:45;;;;;;;8.33;7.83;;;;;;;;;;2631870;30;20382;-79
2021/08/15 11:38:15;;;;;;;8.60;8.00;;;;;;;;;;2631670;30;20922;-79
2021/08/15 11:40:53;;;;;;;10.70;8.90;;;;;;;;;;2632003;30;20382;-79
2021/08/15 11:43:21;;;;;;;10.60;9.60;;;;;;;;;;2633565;30;21336;-79
2021/08/15 11:45:49;;;;;;;9.93;8.93;;;;;;;;;;2633372;30;20386;-78
2021/08/15 11:48:19;;;;;;;9.10;8.40;;;;;;;;;;2629821;38;20374;-79
2021/08/15 11:50:47;;;;;;;9.03;8.33;;;;;;;;;;2632565;38;21234;-80
2021/08/15 11:53:20;;;;;;;8.90;8.40;;;;;;;;;;2632022;30;20410;-79
2021/08/15 11:55:47;;;;;;;8.67;8.00;;;;;;;;;;2634132;30;20944;-80
2021/08/15 11:58:14;;;;;;;9.40;8.60;;;;;;;;;;2632938;30;20386;-79
2021/08/15 12:00:40;;;;;;;8.07;6.53;;;;;;;;;;2630203;30;20474;-79
2021/08/15 12:03:35;;;;;;;8.70;8.00;;;;;;;;;;2630628;30;20405;-79
2021/08/15 12:06:07;;;;;;;9.40;8.60;;;;;;;;;;2629808;38;20391;-79
2021/08/15 12:08:36;;;;;;;8.47;7.60;;;;;;;;;;2633218;30;20390;-79
2021/08/15 12:11:02;;;;;;;8.50;7.70;;;;;;;;;;2629642;30;20367;-79
2021/08/15 12:13:39;;;;;;;8.83;8.03;;;;;;;;;;2632050;30;20454;-78
2021/08/15 12:16:05;;;;;;;7.20;6.07;;;;;;;;;;2630498;38;20384;-80
2021/08/15 12:18:40;;;;;;;8.80;8.00;;;;;;;;;;2633050;30;20383;-79
2021/08/15 12:21:26;;;;;;;7.27;6.67;;;;;;;;;;2632616;38;20385;-80
2021/08/15 12:23:59;;;;;;;7.27;6.60;;;;;;;;;;2632060;38;21484;-79
2021/08/15 12:26:25;;;;;;;7.63;6.80;;;;;;;;;;2633224;30;20362;-80
2021/08/15 12:28:55;;;;;;;7.77;6.97;;;;;;;;;;2632286;38;20402;-78
2021/08/15 12:31:29;;;;;;;8.13;7.53;;;;;;;;;;2633366;30;20362;-81
2021/08/15 12:34:10;;;;;;;7.53;7.13;;;;;;;;;;2635075;30;20347;-83
2021/08/15 12:36:40;;;;;;;7.80;7.20;;;;;;;;;;2633126;38;20388;-80
2021/08/15 12:39:08;;;;;;;9.60;8.70;;;;;;;;;;2633780;30;20358;-82
2021/08/15 12:41:47;;;;;;;6.77;6.27;;;;;;;;;;2633764;38;20386;-81
2021/08/15 12:44:15;;;;;;;6.63;6.13;;;;;;;;;;2634583;30;20459;-82
2021/08/15 12:46:41;;;;;;;7.60;7.00;;;;;;;;;;2635213;30;20354;-79
2021/08/15 12:49:24;;;;;;;8.57;7.80;;;;;;;;;;2633285;38;20383;-79
2021/08/15 12:51:51;;;;;;;8.80;8.00;;;;;;;;;;2632392;30;20411;-82
2021/08/15 12:54:17;;;;;;;8.90;8.30;;;;;;;;;;2632045;38;20410;-80
2021/08/15 12:56:44;;;;;;;8.70;7.80;;;;;;;;;;2633861;30;21223;-79
2021/08/15 12:59:11;;;;;;;9.03;8.30;;;;;;;;;;2631210;38;20393;-80
2021/08/15 13:01:37;;;;;;;12.87;8.97;;;;;;;;;;2632356;30;20377;-80
2021/08/15 13:04:03;;;;;;;8.80;8.20;;;;;;;;;;2633257;38;21317;-81
2021/08/15 13:06:32;;;;;;;9.60;8.90;;;;;;;;;;2631406;30;20393;-80
2021/08/15 13:08:58;;;;;;;9.80;9.00;;;;;;;;;;2635183;38;20383;-79
2021/08/15 13:11:25;;;;;;;10.00;8.97;;;;;;;;;;2634323;30;20406;-81
2021/08/15 13:14:17;;;;;;;9.07;8.40;;;;;;;;;;2633643;30;20398;-82
2021/08/15 13:16:44;;;;;;;7.20;6.50;;;;;;;;;;2632495;30;20906;-78
2021/08/15 13:19:10;;;;;;;7.97;7.37;;;;;;;;;;2633739;30;20351;-82
2021/08/15 13:21:36;;;;;;;11.03;7.87;;;;;;;;;;2631809;38;20382;-81
2021/08/15 13:24:02;;;;;;;9.43;7.00;;;;;;;;;;2631502;30;20409;-78
2021/08/15 13:26:29;;;;;;;8.20;7.67;;;;;;;;;;2632531;30;20387;-79
2021/08/15 13:28:55;;;;;;;9.13;8.10;;;;;;;;;;2631871;38;20494;-80
2021/08/15 13:31:22;;;;;;;8.20;7.70;;;;;;;;;;2632103;30;21159;-80
2021/08/15 13:33:48;;;;;;;9.97;8.10;;;;;;;;;;2632588;30;20374;-79
2021/08/15 13:36:14;;;;;;;10.73;10.00;;;;;;;;;;2631715;30;20390;-78
2021/08/15 13:38:42;;;;;;;8.40;7.63;;;;;;;;;;2632906;38;20377;-79
2021/08/15 13:41:09;;;;;;;8.10;7.50;;;;;;;;;;2631795;38;20421;-81
2021/08/15 13:43:35;;;;;;;8.63;8.03;;;;;;;;;;2634542;38;20470;-80
2021/08/15 13:46:01;;;;;;;9.10;8.50;;;;;;;;;;2631780;30;20382;-79
2021/08/15 13:48:28;;;;;;;9.50;8.33;;;;;;;;;;2634968;38;20386;-80
2021/08/15 13:50:55;;;;;;;11.40;9.07;;;;;;;;;;2631785;38;20512;-80
2021/08/15 13:53:21;;;;;;;8.57;7.07;;;;;;;;;;2632971;30;20952;-80
2021/08/15 13:55:47;;;;;;;8.87;8.13;;;;;;;;;;2632646;38;20378;-79
2021/08/15 13:58:14;;;;;;;8.70;7.90;;;;;;;;;;2633118;30;20375;-78
2021/08/15 14:00:42;;;;;;;9.90;8.20;;;;;;;;;;2632766;30;21329;-79
2021/08/15 14:03:08;;;;;;;8.67;7.93;;;;;;;;;;2630915;38;20374;-80
2021/08/15 14:05:34;;;;;;;9.00;8.17;;;;;;;;;;2630684;38;20379;-79
2021/08/15 14:08:02;;;;;;;8.80;8.10;;;;;;;;;;2633648;30;20399;-79
2021/08/15 14:10:29;;;;;;;8.10;7.60;;;;;;;;;;2631984;30;20382;-79
2021/08/15 14:12:55;;;;;;;8.53;7.83;;;;;;;;;;2632397;38;20376;-79
2021/08/15 14:15:21;;;;;;;9.70;8.80;;;;;;;;;;2633715;30;20370;-81
2021/08/15 14:17:47;;;;;;;8.70;8.10;;;;;;;;;;2634637;30;20354;-80
2021/08/15 14:20:14;;;;;;;8.80;8.00;;;;;;;;;;2633933;30;21382;-81
2021/08/15 14:22:42;;;;;;;9.67;8.83;;;;;;;;;;2633326;30;20354;-80
2021/08/15 14:25:09;;;;;;;8.27;7.67;;;;;;;;;;2633875;38;20386;-79
2021/08/15 14:27:36;;;;;;;8.30;7.60;;;;;;;;;;2632846;30;20411;-80
2021/08/15 14:30:03;;;;;;;8.90;8.00;;;;;;;;;;2631166;38;20375;-80
2021/08/15 14:32:29;;;;;;;9.20;8.50;;;;;;;;;;2632145;38;21064;-79